createdAt,value
2023-01-09T00:00:57.571Z,0.00
2023-01-09T00:01:57.534Z,0.00
2023-01-09T00:02:57.488Z,0.00
2023-01-09T00:03:57.512Z,0.00
2023-01-09T00:04:57.421Z,0.00
2023-01-09T00:05:57.350Z,0.00
2023-01-09T00:06:57.295Z,0.00
2023-01-09T00:07:57.248Z,0.00
2023-01-09T00:08:57.207Z,0.00
2023-01-09T00:09:57.153Z,0.00
2023-01-09T00:10:57.284Z,0.00
2023-01-09T00:11:57.059Z,0.00
2023-01-09T00:12:57.015Z,0.00
2023-01-09T00:13:56.968Z,0.00
2023-01-09T00:14:56.937Z,0.00
2023-01-09T00:15:56.881Z,0.00
2023-01-09T00:16:56.974Z,0.00
2023-01-09T00:17:56.783Z,0.00
2023-01-09T00:18:56.757Z,0.00
2023-01-09T00:19:56.696Z,0.00
2023-01-09T00:20:56.649Z,0.00
2023-01-09T00:21:56.595Z,0.00
2023-01-09T00:22:56.571Z,0.00
2023-01-09T00:23:56.503Z,0.00
2023-01-09T00:24:56.463Z,0.00
2023-01-09T00:25:56.411Z,0.00
2023-01-09T00:26:56.363Z,0.00
2023-01-09T00:27:56.318Z,0.00
2023-01-09T00:28:56.299Z,0.00
2023-01-09T00:29:56.220Z,0.00
2023-01-09T00:30:56.231Z,0.00
2023-01-09T00:31:56.129Z,0.00
2023-01-09T00:32:56.088Z,0.00
2023-01-09T00:33:56.043Z,0.00
2023-01-09T00:34:56.010Z,0.00
2023-01-09T00:35:55.946Z,0.00
2023-01-09T00:36:55.893Z,0.00
2023-01-09T00:37:55.853Z,0.00
2023-01-09T00:38:55.800Z,0.00
2023-01-09T00:39:55.756Z,0.00
2023-01-09T00:40:55.736Z,0.00
2023-01-09T00:41:55.667Z,0.00
2023-01-09T00:42:55.649Z,0.00
2023-01-09T00:43:55.568Z,0.00
2023-01-09T00:44:55.521Z,0.00
2023-01-09T00:45:55.574Z,0.00
2023-01-09T00:46:55.441Z,0.00
2023-01-09T00:47:55.376Z,0.00
2023-01-09T00:48:55.332Z,0.00
2023-01-09T00:49:55.284Z,0.00
2023-01-09T00:50:55.245Z,0.00
2023-01-09T00:51:55.212Z,0.00
2023-01-09T00:52:55.146Z,0.00
2023-01-09T00:53:55.092Z,0.00
2023-01-09T00:54:55.058Z,0.00
2023-01-09T00:55:55.003Z,0.00
2023-01-09T00:56:54.976Z,0.00
2023-01-09T00:57:54.910Z,0.00
2023-01-09T00:58:54.866Z,0.00
2023-01-09T00:59:54.820Z,0.00
2023-01-09T01:00:54.811Z,0.00
2023-01-09T01:01:54.841Z,0.00
2023-01-09T01:02:54.749Z,0.00
2023-01-09T01:03:54.625Z,0.00
2023-01-09T01:04:54.588Z,0.00
2023-01-09T01:05:54.542Z,0.00
2023-01-09T01:06:54.496Z,0.00
2023-01-09T01:07:54.438Z,0.00
2023-01-09T01:08:54.415Z,0.00
2023-01-09T01:09:54.349Z,0.00
2023-01-09T01:10:54.303Z,0.00
2023-01-09T01:11:54.260Z,0.00
2023-01-09T01:12:54.223Z,0.00
2023-01-09T01:13:54.173Z,0.00
2023-01-09T01:14:54.143Z,0.00
2023-01-09T01:15:54.069Z,0.00
2023-01-09T01:16:54.071Z,0.00
2023-01-09T01:17:53.973Z,0.00
2023-01-09T01:18:53.943Z,0.00
2023-01-09T01:19:53.882Z,0.00
2023-01-09T01:20:53.869Z,0.00
2023-01-09T01:21:53.784Z,0.00
2023-01-09T01:22:53.737Z,0.00
2023-01-09T01:23:53.703Z,0.00
2023-01-09T01:24:53.648Z,0.00
2023-01-09T01:25:53.597Z,0.00
2023-01-09T01:26:53.569Z,0.00
2023-01-09T01:27:53.512Z,0.00
2023-01-09T01:28:53.454Z,0.00
2023-01-09T01:29:53.415Z,0.00
2023-01-09T01:30:53.403Z,0.00
2023-01-09T01:31:53.318Z,0.00
2023-01-09T01:32:53.293Z,0.00
2023-01-09T01:33:53.234Z,0.00
2023-01-09T01:34:53.178Z,0.00
2023-01-09T01:35:53.126Z,0.00
2023-01-09T01:36:53.085Z,0.00
2023-01-09T01:37:53.048Z,0.00
2023-01-09T01:38:53.022Z,0.00
2023-01-09T01:39:52.939Z,0.00
2023-01-09T01:40:52.892Z,0.00
2023-01-09T01:41:52.855Z,0.00
2023-01-09T01:42:52.800Z,0.00
2023-01-09T01:43:52.751Z,0.00
2023-01-09T01:44:52.729Z,0.00
2023-01-09T01:45:52.689Z,0.00
2023-01-09T01:46:52.616Z,0.00
2023-01-09T01:47:52.565Z,0.00
2023-01-09T01:48:52.514Z,0.00
2023-01-09T01:49:52.475Z,0.00
2023-01-09T01:50:52.460Z,0.00
2023-01-09T01:51:52.390Z,0.00
2023-01-09T01:52:52.321Z,0.00
2023-01-09T01:53:52.316Z,0.00
2023-01-09T01:54:52.231Z,0.00
2023-01-09T01:55:52.193Z,0.00
2023-01-09T01:56:52.169Z,0.00
2023-01-09T01:57:52.095Z,0.00
2023-01-09T01:58:52.050Z,0.00
2023-01-09T01:59:51.997Z,0.00
2023-01-09T02:00:51.994Z,0.00
2023-01-09T02:01:52.049Z,0.00
2023-01-09T02:02:51.890Z,0.00
2023-01-09T02:03:51.821Z,0.00
2023-01-09T02:04:51.763Z,0.00
2023-01-09T02:05:51.718Z,0.00
2023-01-09T02:06:51.678Z,0.00
2023-01-09T02:07:51.634Z,0.00
2023-01-09T02:08:51.609Z,0.00
2023-01-09T02:09:51.543Z,0.00
2023-01-09T02:10:51.478Z,0.00
2023-01-09T02:11:51.441Z,0.00
2023-01-09T02:12:51.387Z,0.00
2023-01-09T02:13:51.346Z,0.00
2023-01-09T02:14:51.306Z,0.00
2023-01-09T02:15:51.270Z,0.00
2023-01-09T02:16:51.197Z,0.00
2023-01-09T02:17:51.152Z,0.00
2023-01-09T02:18:51.103Z,0.00
2023-01-09T02:19:51.070Z,0.00
2023-01-09T02:20:51.014Z,0.00
2023-01-09T02:21:50.966Z,0.00
2023-01-09T02:22:50.916Z,0.00
2023-01-09T02:23:50.877Z,0.00
2023-01-09T02:24:50.823Z,0.00
2023-01-09T02:25:50.806Z,0.00
2023-01-09T02:26:50.726Z,0.00
2023-01-09T02:27:50.681Z,0.00
2023-01-09T02:28:50.627Z,0.00
2023-01-09T02:29:50.583Z,0.00
2023-01-09T02:30:50.533Z,0.00
2023-01-09T02:31:50.549Z,0.00
2023-01-09T02:32:50.447Z,0.00
2023-01-09T02:33:50.393Z,0.00
2023-01-09T02:34:50.347Z,0.00
2023-01-09T02:35:50.304Z,0.00
2023-01-09T02:36:50.250Z,0.00
2023-01-09T02:37:50.220Z,0.00
2023-01-09T02:38:50.178Z,0.00
2023-01-09T02:39:50.148Z,0.00
2023-01-09T02:40:50.071Z,0.00
2023-01-09T02:41:50.010Z,0.00
2023-01-09T02:42:49.999Z,0.00
2023-01-09T02:43:49.914Z,0.00
2023-01-09T02:44:49.875Z,0.00
2023-01-09T02:45:49.958Z,0.00
2023-01-09T02:46:49.782Z,0.00
2023-01-09T02:47:49.729Z,0.00
2023-01-09T02:48:49.688Z,0.00
2023-01-09T02:49:49.636Z,0.00
2023-01-09T02:50:49.589Z,0.00
2023-01-09T02:51:49.558Z,0.00
2023-01-09T02:52:49.506Z,0.00
2023-01-09T02:53:50.432Z,0.00
2023-01-09T02:54:49.399Z,0.00
2023-01-09T02:55:49.348Z,0.00
2023-01-09T02:56:49.302Z,0.00
2023-01-09T02:57:49.298Z,0.00
2023-01-09T02:58:49.204Z,0.00
2023-01-09T02:59:49.155Z,0.00
2023-01-09T03:00:49.263Z,0.00
2023-01-09T03:01:49.122Z,0.00
2023-01-09T03:02:49.027Z,0.00
2023-01-09T03:03:48.999Z,0.00
2023-01-09T03:04:48.919Z,0.00
2023-01-09T03:05:48.876Z,0.00
2023-01-09T03:06:48.830Z,0.00
2023-01-09T03:07:48.785Z,0.00
2023-01-09T03:08:48.731Z,0.00
2023-01-09T03:09:48.699Z,0.00
2023-01-09T03:10:48.639Z,0.00
2023-01-09T03:11:48.592Z,0.00
2023-01-09T03:12:48.540Z,0.00
2023-01-09T03:13:48.601Z,0.00
2023-01-09T03:14:48.451Z,0.00
2023-01-09T03:15:48.403Z,0.00
2023-01-09T03:16:48.357Z,0.00
2023-01-09T03:17:48.303Z,0.00
2023-01-09T03:18:48.259Z,0.00
2023-01-09T03:19:48.239Z,0.00
2023-01-09T03:20:48.184Z,0.00
2023-01-09T03:21:48.117Z,0.00
2023-01-09T03:22:48.066Z,0.00
2023-01-09T03:23:48.024Z,0.00
2023-01-09T03:24:48.012Z,0.00
2023-01-09T03:25:47.924Z,0.00
2023-01-09T03:26:47.877Z,0.00
2023-01-09T03:27:47.831Z,0.00
2023-01-09T03:28:47.786Z,0.00
2023-01-09T03:29:47.741Z,0.00
2023-01-09T03:30:47.716Z,0.00
2023-01-09T03:31:47.681Z,0.00
2023-01-09T03:32:47.589Z,0.00
2023-01-09T03:33:47.543Z,0.00
2023-01-09T03:34:47.499Z,0.00
2023-01-09T03:35:47.447Z,0.00
2023-01-09T03:36:47.416Z,0.00
2023-01-09T03:37:47.354Z,0.00
2023-01-09T03:38:47.305Z,0.00
2023-01-09T03:39:47.261Z,0.00
2023-01-09T03:40:47.208Z,0.00
2023-01-09T03:41:47.168Z,0.00
2023-01-09T03:42:47.131Z,0.00
2023-01-09T03:43:47.073Z,0.00
2023-01-09T03:44:47.025Z,0.00
2023-01-09T03:45:46.993Z,0.00
2023-01-09T03:46:46.924Z,0.00
2023-01-09T03:47:46.882Z,0.00
2023-01-09T03:48:46.852Z,0.00
2023-01-09T03:49:46.783Z,0.00
2023-01-09T03:50:46.735Z,0.00
2023-01-09T03:51:46.689Z,0.00
2023-01-09T03:52:46.637Z,0.00
2023-01-09T03:53:46.600Z,0.00
2023-01-09T03:54:46.554Z,0.00
2023-01-09T03:55:46.494Z,0.00
2023-01-09T03:56:46.452Z,0.00
2023-01-09T03:57:46.407Z,0.00
2023-01-09T03:58:46.362Z,0.00
2023-01-09T03:59:46.316Z,0.00
2023-01-09T04:00:46.351Z,0.00
2023-01-09T04:01:46.306Z,0.00
2023-01-09T04:02:46.166Z,0.00
2023-01-09T04:03:46.135Z,0.00
2023-01-09T04:04:46.081Z,0.00
2023-01-09T04:05:46.019Z,0.00
2023-01-09T04:06:45.971Z,0.00
2023-01-09T04:07:45.928Z,0.00
2023-01-09T04:08:45.874Z,0.00
2023-01-09T04:09:45.828Z,0.00
2023-01-09T04:10:45.948Z,0.00
2023-01-09T04:11:45.731Z,0.00
2023-01-09T04:12:45.683Z,0.00
2023-01-09T04:13:45.645Z,0.00
2023-01-09T04:14:45.597Z,0.00
2023-01-09T04:15:45.565Z,0.00
2023-01-09T04:16:45.528Z,0.00
2023-01-09T04:17:45.446Z,0.00
2023-01-09T04:18:45.397Z,0.00
2023-01-09T04:19:45.356Z,0.00
2023-01-09T04:20:45.297Z,0.00
2023-01-09T04:21:45.275Z,0.00
2023-01-09T04:22:45.203Z,0.00
2023-01-09T04:23:45.162Z,0.00
2023-01-09T04:24:45.116Z,0.00
2023-01-09T04:25:45.061Z,0.00
2023-01-09T04:26:45.012Z,0.00
2023-01-09T04:27:44.973Z,0.00
2023-01-09T04:28:44.919Z,0.00
2023-01-09T04:29:44.867Z,0.00
2023-01-09T04:30:44.820Z,0.00
2023-01-09T04:31:44.808Z,0.00
2023-01-09T04:32:44.722Z,0.00
2023-01-09T04:33:44.689Z,0.00
2023-01-09T04:34:44.643Z,0.00
2023-01-09T04:35:44.582Z,0.00
2023-01-09T04:36:44.535Z,0.00
2023-01-09T04:37:44.483Z,0.00
2023-01-09T04:38:44.439Z,0.00
2023-01-09T04:39:44.425Z,0.00
2023-01-09T04:40:44.344Z,0.00
2023-01-09T04:41:44.314Z,0.00
2023-01-09T04:42:44.253Z,0.00
2023-01-09T04:43:44.197Z,0.00
2023-01-09T04:44:44.143Z,0.00
2023-01-09T04:45:44.126Z,0.00
2023-01-09T04:46:44.077Z,0.00
2023-01-09T04:47:44.003Z,0.00
2023-01-09T04:48:43.955Z,0.00
2023-01-09T04:49:43.906Z,0.00
2023-01-09T04:50:43.857Z,0.00
2023-01-09T04:51:43.964Z,0.00
2023-01-09T04:52:43.759Z,0.00
2023-01-09T04:53:43.714Z,0.00
2023-01-09T04:54:43.666Z,0.00
2023-01-09T04:55:43.647Z,0.00
2023-01-09T04:56:43.572Z,0.00
2023-01-09T04:57:43.524Z,0.00
2023-01-09T04:58:43.496Z,0.00
2023-01-09T04:59:43.436Z,0.00
2023-01-09T05:00:43.393Z,0.00
2023-01-09T05:01:43.430Z,0.00
2023-01-09T05:02:43.289Z,0.00
2023-01-09T05:03:43.236Z,0.00
2023-01-09T05:04:43.207Z,0.00
2023-01-09T05:05:43.139Z,0.00
2023-01-09T05:06:43.086Z,0.00
2023-01-09T05:07:43.039Z,0.00
2023-01-09T05:08:43.012Z,0.00
2023-01-09T05:09:42.997Z,0.00
2023-01-09T05:10:42.915Z,0.00
2023-01-09T05:11:42.853Z,0.00
2023-01-09T05:12:42.804Z,0.00
2023-01-09T05:13:42.754Z,0.00
2023-01-09T05:14:42.706Z,0.00
2023-01-09T05:15:42.663Z,0.00
2023-01-09T05:16:42.668Z,0.00
2023-01-09T05:17:42.570Z,0.00
2023-01-09T05:18:42.516Z,0.00
2023-01-09T05:19:42.481Z,0.00
2023-01-09T05:20:42.419Z,0.00
2023-01-09T05:21:42.373Z,0.00
2023-01-09T05:22:42.349Z,0.00
2023-01-09T05:23:42.280Z,0.00
2023-01-09T05:24:42.229Z,0.00
2023-01-09T05:25:42.204Z,0.00
2023-01-09T05:26:42.165Z,0.00
2023-01-09T05:27:42.084Z,0.00
2023-01-09T05:28:42.040Z,0.00
2023-01-09T05:29:41.989Z,0.00
2023-01-09T05:30:41.943Z,0.00
2023-01-09T05:31:41.920Z,0.00
2023-01-09T05:32:41.859Z,0.00
2023-01-09T05:33:41.800Z,0.00
2023-01-09T05:34:41.750Z,0.00
2023-01-09T05:35:41.706Z,0.00
2023-01-09T05:36:41.729Z,0.00
2023-01-09T05:37:41.607Z,0.00
2023-01-09T05:38:41.741Z,0.00
2023-01-09T05:39:41.520Z,0.00
2023-01-09T05:40:41.460Z,0.00
2023-01-09T05:41:41.415Z,0.00
2023-01-09T05:42:41.371Z,0.00
2023-01-09T05:43:41.329Z,0.00
2023-01-09T05:44:41.300Z,0.00
2023-01-09T05:45:41.232Z,0.00
2023-01-09T05:46:41.192Z,0.00
2023-01-09T05:47:41.137Z,0.00
2023-01-09T05:48:41.079Z,0.00
2023-01-09T05:49:41.060Z,0.00
2023-01-09T05:50:41.011Z,0.00
2023-01-09T05:51:40.945Z,0.00
2023-01-09T05:52:40.924Z,0.00
2023-01-09T05:53:40.844Z,0.00
2023-01-09T05:54:40.799Z,0.00
2023-01-09T05:55:40.752Z,0.00
2023-01-09T05:56:40.714Z,0.00
2023-01-09T05:57:40.652Z,0.00
2023-01-09T05:58:40.604Z,0.00
2023-01-09T05:59:40.576Z,0.00
2023-01-09T06:03:48.115Z,0.00
2023-01-09T06:04:48.075Z,0.00
2023-01-09T06:05:48.010Z,0.00
2023-01-09T06:06:47.954Z,0.00
2023-01-09T06:07:47.902Z,0.00
2023-01-09T06:08:48.954Z,0.00
2023-01-09T06:09:47.815Z,0.00
2023-01-09T06:10:47.775Z,0.00
2023-01-09T06:11:47.712Z,0.00
2023-01-09T06:12:47.663Z,0.00
2023-01-09T06:13:47.615Z,0.00
2023-01-09T06:14:47.564Z,0.00
2023-01-09T06:15:47.566Z,0.00
2023-01-09T06:16:47.497Z,0.00
2023-01-09T06:17:47.422Z,0.00
2023-01-09T06:18:47.383Z,0.00
2023-01-09T06:19:47.326Z,0.00
2023-01-09T06:20:47.293Z,0.00
2023-01-09T06:21:47.238Z,0.00
2023-01-09T06:22:47.222Z,0.00
2023-01-09T06:23:47.132Z,0.00
2023-01-09T06:24:47.084Z,0.00
2023-01-09T06:25:47.043Z,0.00
2023-01-09T06:26:46.991Z,0.00
2023-01-09T06:27:46.937Z,0.00
2023-01-09T06:28:46.919Z,0.00
2023-01-09T06:29:46.838Z,0.00
2023-01-09T06:30:46.831Z,0.00
2023-01-09T06:31:46.744Z,0.00
2023-01-09T06:32:46.697Z,0.00
2023-01-09T06:33:46.654Z,0.00
2023-01-09T06:34:46.622Z,0.00
2023-01-09T06:35:46.551Z,0.00
2023-01-09T06:36:46.535Z,0.00
2023-01-09T06:37:46.483Z,0.00
2023-01-09T06:38:46.413Z,0.00
2023-01-09T06:39:46.376Z,0.00
2023-01-09T06:40:46.331Z,4.00
2023-01-09T06:41:48.394Z,4.00
2023-01-09T06:42:46.240Z,4.00
2023-01-09T06:43:46.168Z,4.00
2023-01-09T06:44:46.121Z,4.00
2023-01-09T06:45:46.069Z,8.00
2023-01-09T06:46:46.027Z,8.00
2023-01-09T06:47:45.981Z,8.00
2023-01-09T06:48:45.940Z,8.00
2023-01-09T06:49:45.879Z,12.00
2023-01-09T06:50:45.840Z,16.00
2023-01-09T06:51:45.807Z,20.00
2023-01-09T06:52:45.732Z,20.00
2023-01-09T06:53:45.684Z,24.00
2023-01-09T06:54:45.643Z,32.00
2023-01-09T06:55:45.601Z,32.00
2023-01-09T06:56:45.542Z,40.00
2023-01-09T06:57:45.553Z,48.00
2023-01-09T06:58:45.594Z,56.00
2023-01-09T06:59:45.427Z,64.00
2023-01-09T07:00:45.353Z,76.00
2023-01-09T07:01:45.367Z,88.00
2023-01-09T07:02:45.253Z,100.00
2023-01-09T07:03:45.249Z,120.00
2023-01-09T07:04:45.157Z,132.00
2023-01-09T07:05:45.125Z,148.00
2023-01-09T07:06:45.064Z,168.00
2023-01-09T07:07:45.011Z,188.00
2023-01-09T07:08:45.311Z,216.00
2023-01-09T07:09:44.922Z,240.00
2023-01-09T07:10:44.869Z,260.00
2023-01-09T07:11:44.837Z,288.00
2023-01-09T07:12:44.773Z,312.00
2023-01-09T07:13:44.731Z,340.00
2023-01-09T07:14:44.685Z,368.00
2023-01-09T07:15:44.662Z,396.00
2023-01-09T07:16:44.608Z,424.00
2023-01-09T07:17:44.541Z,456.00
2023-01-09T07:18:44.482Z,488.00
2023-01-09T07:19:44.434Z,516.00
2023-01-09T07:20:44.386Z,548.00
2023-01-09T07:21:44.344Z,592.00
2023-01-09T07:22:44.326Z,628.00
2023-01-09T07:23:44.246Z,660.00
2023-01-09T07:24:44.201Z,704.00
2023-01-09T07:25:44.151Z,740.00
2023-01-09T07:26:44.130Z,780.00
2023-01-09T07:27:44.057Z,804.00
2023-01-09T07:28:44.007Z,808.00
2023-01-09T07:29:43.969Z,836.00
2023-01-09T07:30:43.908Z,860.00
2023-01-09T07:31:43.868Z,904.00
2023-01-09T07:32:43.811Z,984.00
2023-01-09T07:33:43.789Z,1000.00
2023-01-09T07:34:43.716Z,1016.00
2023-01-09T07:35:43.672Z,1048.00
2023-01-09T07:36:43.623Z,1068.00
2023-01-09T07:37:43.583Z,1076.00
2023-01-09T07:38:43.531Z,1104.00
2023-01-09T07:39:43.493Z,1136.00
2023-01-09T07:40:43.426Z,1184.00
2023-01-09T07:41:43.386Z,1240.00
2023-01-09T07:42:43.339Z,1224.00
2023-01-09T07:43:43.283Z,1220.00
2023-01-09T07:44:43.248Z,1292.00
2023-01-09T07:45:43.204Z,1336.00
2023-01-09T07:46:43.256Z,1400.00
2023-01-09T07:47:43.097Z,1456.00
2023-01-09T07:48:43.046Z,1468.00
2023-01-09T07:49:43.000Z,1568.00
2023-01-09T07:50:42.954Z,1628.00
2023-01-09T07:51:42.962Z,1664.00
2023-01-09T07:52:42.874Z,1744.00
2023-01-09T07:53:42.831Z,1836.00
2023-01-09T07:54:42.767Z,1956.00
2023-01-09T07:55:42.714Z,2068.00
2023-01-09T07:56:42.662Z,2096.00
2023-01-09T07:57:42.617Z,2108.00
2023-01-09T07:58:42.575Z,2144.00
2023-01-09T07:59:42.550Z,2272.00
2023-01-09T08:00:42.475Z,2388.00
2023-01-09T08:01:42.523Z,2524.00
2023-01-09T08:02:42.474Z,2764.00
2023-01-09T08:03:42.327Z,2900.00
2023-01-09T08:04:42.294Z,2868.00
2023-01-09T08:05:42.247Z,2688.00
2023-01-09T08:06:42.193Z,2780.00
2023-01-09T08:07:42.144Z,3104.00
2023-01-09T08:08:42.342Z,3208.00
2023-01-09T08:09:42.050Z,3308.00
2023-01-09T08:10:42.003Z,3364.00
2023-01-09T08:11:41.948Z,3488.00
2023-01-09T08:12:41.899Z,3448.00
2023-01-09T08:13:41.857Z,3140.00
2023-01-09T08:14:41.819Z,2880.00
2023-01-09T08:15:41.808Z,2936.00
2023-01-09T08:16:41.713Z,2960.00
2023-01-09T08:17:41.665Z,3048.00
2023-01-09T08:18:41.619Z,2916.00
2023-01-09T08:19:41.568Z,2952.00
2023-01-09T08:20:41.547Z,2964.00
2023-01-09T08:21:41.470Z,2992.00
2023-01-09T08:22:41.425Z,3028.00
2023-01-09T08:23:41.376Z,3072.00
2023-01-09T08:24:41.329Z,3112.00
2023-01-09T08:25:41.282Z,3144.00
2023-01-09T08:26:41.271Z,3160.00
2023-01-09T08:27:41.203Z,3188.00
2023-01-09T08:28:41.142Z,3220.00
2023-01-09T08:29:41.097Z,3260.00
2023-01-09T08:30:41.048Z,3304.00
2023-01-09T08:31:41.111Z,3352.00
2023-01-09T08:32:40.946Z,3380.00
2023-01-09T08:33:40.905Z,3404.00
2023-01-09T08:34:40.907Z,3444.00
2023-01-09T08:35:40.819Z,3480.00
2023-01-09T08:36:40.759Z,3528.00
2023-01-09T08:37:40.733Z,3592.00
2023-01-09T08:38:40.664Z,3692.00
2023-01-09T08:39:40.617Z,3776.00
2023-01-09T08:40:40.572Z,3848.00
2023-01-09T08:41:40.518Z,3976.00
2023-01-09T08:42:40.475Z,4320.00
2023-01-09T08:43:40.450Z,5000.00
2023-01-09T08:44:40.389Z,5712.00
2023-01-09T08:45:40.332Z,5272.00
2023-01-09T08:46:40.343Z,4868.00
2023-01-09T08:47:40.234Z,4480.00
2023-01-09T08:48:40.187Z,4264.00
2023-01-09T08:49:40.272Z,4508.00
2023-01-09T08:50:40.103Z,4992.00
2023-01-09T08:51:40.073Z,5516.00
2023-01-09T08:52:40.002Z,5716.00
2023-01-09T08:53:39.947Z,5208.00
2023-01-09T08:54:39.940Z,4552.00
2023-01-09T08:55:39.897Z,4704.00
2023-01-09T08:56:39.807Z,4364.00
2023-01-09T08:57:39.763Z,4380.00
2023-01-09T08:58:39.712Z,4160.00
2023-01-09T08:59:39.668Z,4072.00
2023-01-09T09:00:39.619Z,4140.00
2023-01-09T09:01:39.600Z,4284.00
2023-01-09T09:02:39.550Z,4352.00
2023-01-09T09:03:39.484Z,4392.00
2023-01-09T09:04:39.431Z,4344.00
2023-01-09T09:05:39.394Z,4364.00
2023-01-09T09:06:39.336Z,4476.00
2023-01-09T09:07:39.308Z,4600.00
2023-01-09T09:08:39.242Z,4460.00
2023-01-09T09:09:39.199Z,4416.00
2023-01-09T09:10:39.147Z,4616.00
2023-01-09T09:11:39.099Z,4784.00
2023-01-09T09:12:39.053Z,5308.00
2023-01-09T09:13:39.039Z,6008.00
2023-01-09T09:14:38.961Z,7120.00
2023-01-09T09:15:39.024Z,9228.00
2023-01-09T09:16:38.864Z,9212.00
2023-01-09T09:17:38.814Z,8260.00
2023-01-09T09:18:38.769Z,7956.00
2023-01-09T09:19:38.851Z,7528.00
2023-01-09T09:20:38.679Z,9040.00
2023-01-09T09:21:38.621Z,9776.00
2023-01-09T09:22:38.577Z,10328.00
2023-01-09T09:23:38.539Z,9988.00
2023-01-09T09:24:38.485Z,8996.00
2023-01-09T09:25:38.612Z,7788.00
2023-01-09T09:26:38.393Z,7420.00
2023-01-09T09:27:38.347Z,7360.00
2023-01-09T09:28:38.296Z,7324.00
2023-01-09T09:29:38.248Z,6932.00
2023-01-09T09:30:38.206Z,7584.00
2023-01-09T09:31:38.247Z,8580.00
2023-01-09T09:32:38.101Z,7876.00
2023-01-09T09:33:38.060Z,7356.00
2023-01-09T09:34:38.037Z,8648.00
2023-01-09T09:35:37.970Z,8472.00
2023-01-09T09:36:37.955Z,6308.00
2023-01-09T09:37:37.903Z,5468.00
2023-01-09T09:38:37.836Z,5700.00
2023-01-09T09:39:37.780Z,5652.00
2023-01-09T09:40:37.732Z,5604.00
2023-01-09T09:41:37.699Z,5372.00
2023-01-09T09:42:37.650Z,5184.00
2023-01-09T09:43:37.611Z,5172.00
2023-01-09T09:44:37.540Z,5276.00
2023-01-09T09:45:37.495Z,5428.00
2023-01-09T09:46:37.484Z,5592.00
2023-01-09T09:47:37.407Z,5808.00
2023-01-09T09:48:37.382Z,6196.00
2023-01-09T09:49:37.318Z,6800.00
2023-01-09T09:50:37.258Z,7824.00
2023-01-09T09:51:37.219Z,9976.00
2023-01-09T09:52:37.167Z,12820.00
2023-01-09T09:53:37.133Z,14860.00
2023-01-09T09:54:37.094Z,14524.00
2023-01-09T09:55:37.033Z,13480.00
2023-01-09T09:56:36.977Z,13980.00
2023-01-09T09:57:36.955Z,11560.00
2023-01-09T09:58:36.918Z,10792.00
2023-01-09T09:59:36.848Z,11416.00
2023-01-09T10:00:36.831Z,11060.00
2023-01-09T10:01:36.749Z,10532.00
2023-01-09T10:02:36.736Z,10264.00
2023-01-09T10:03:36.789Z,9164.00
2023-01-09T10:04:36.603Z,8880.00
2023-01-09T10:05:36.583Z,8672.00
2023-01-09T10:06:36.548Z,8836.00
2023-01-09T10:07:36.469Z,9356.00
2023-01-09T10:08:36.421Z,10020.00
2023-01-09T10:09:36.382Z,10688.00
2023-01-09T10:10:36.323Z,12060.00
2023-01-09T10:11:36.289Z,11184.00
2023-01-09T10:12:36.244Z,11292.00
2023-01-09T10:13:36.353Z,10500.00
2023-01-09T10:14:36.141Z,10100.00
2023-01-09T10:15:38.269Z,9884.00
2023-01-09T10:16:36.048Z,9068.00
2023-01-09T10:17:36.000Z,9440.00
2023-01-09T10:18:35.970Z,9480.00
2023-01-09T10:19:35.915Z,9540.00
2023-01-09T10:20:35.865Z,9736.00
2023-01-09T10:21:35.811Z,10724.00
2023-01-09T10:22:35.777Z,12324.00
2023-01-09T10:23:35.743Z,12696.00
2023-01-09T10:24:35.678Z,13188.00
2023-01-09T10:25:35.627Z,13572.00
2023-01-09T10:26:35.581Z,11280.00
2023-01-09T10:27:35.562Z,12860.00
2023-01-09T10:28:35.547Z,15452.00
2023-01-09T10:29:35.458Z,18784.00
2023-01-09T10:30:35.393Z,21280.00
2023-01-09T10:31:35.458Z,21888.00
2023-01-09T10:32:35.295Z,24832.00
2023-01-09T10:33:35.254Z,26240.00
2023-01-09T10:34:35.250Z,17152.00
2023-01-09T10:35:47.077Z,17024.00
2023-01-09T10:36:35.151Z,17280.00
2023-01-09T10:37:35.073Z,17632.00
2023-01-09T10:38:35.025Z,16864.00
2023-01-09T10:39:35.003Z,17472.00
2023-01-09T10:40:34.958Z,17952.00
2023-01-09T10:41:34.888Z,21952.00
2023-01-09T10:42:34.870Z,21600.00
2023-01-09T10:43:34.796Z,23008.00
2023-01-09T10:44:34.753Z,26656.00
2023-01-09T10:45:34.707Z,34336.00
2023-01-09T10:46:37.289Z,33248.00
2023-01-09T10:47:34.611Z,39328.00
2023-01-09T10:48:34.569Z,26688.00
2023-01-09T10:49:42.367Z,23264.00
2023-01-09T10:50:34.485Z,28288.00
2023-01-09T10:51:34.599Z,31904.00
2023-01-09T10:52:34.422Z,32288.00
2023-01-09T10:53:34.610Z,16992.00
2023-01-09T10:54:34.305Z,10960.00
2023-01-09T10:55:34.415Z,10032.00
2023-01-09T10:56:34.213Z,10228.00
2023-01-09T10:57:34.169Z,13112.00
2023-01-09T10:58:34.436Z,16960.00
2023-01-09T10:59:34.085Z,19712.00
2023-01-09T11:00:35.279Z,20224.00
2023-01-09T11:01:34.004Z,22752.00
2023-01-09T11:02:34.075Z,24896.00
2023-01-09T11:03:33.932Z,21824.00
2023-01-09T11:04:34.073Z,21504.00
2023-01-09T11:05:33.819Z,20928.00
2023-01-09T11:06:33.887Z,20352.00
2023-01-09T11:07:33.727Z,15564.00
2023-01-09T11:08:33.955Z,11572.00
2023-01-09T11:09:33.640Z,9100.00
2023-01-09T11:10:33.918Z,8952.00
2023-01-09T11:11:33.550Z,10468.00
2023-01-09T11:12:33.723Z,9972.00
2023-01-09T11:13:33.543Z,8596.00
2023-01-09T11:14:33.533Z,7032.00
2023-01-09T11:15:33.372Z,6888.00
2023-01-09T11:16:34.569Z,7620.00
2023-01-09T11:17:33.276Z,7856.00
2023-01-09T11:18:33.364Z,7092.00
2023-01-09T11:19:33.188Z,8196.00
2023-01-09T11:20:33.376Z,9308.00
2023-01-09T11:21:33.087Z,8748.00
2023-01-09T11:22:33.387Z,6972.00
2023-01-09T11:23:32.992Z,6788.00
2023-01-09T11:24:33.196Z,6352.00
2023-01-09T11:25:32.905Z,7048.00
2023-01-09T11:26:33.009Z,6284.00
2023-01-09T11:27:32.806Z,5956.00
2023-01-09T11:28:33.024Z,6232.00
2023-01-09T11:29:32.716Z,5688.00
2023-01-09T11:30:32.832Z,6136.00
2023-01-09T11:31:32.727Z,7060.00
2023-01-09T11:32:32.610Z,8444.00
2023-01-09T11:33:32.524Z,8416.00
2023-01-09T11:34:32.667Z,7976.00
2023-01-09T11:35:34.412Z,8876.00
2023-01-09T11:36:32.720Z,7100.00
2023-01-09T11:37:32.337Z,7196.00
2023-01-09T11:38:32.313Z,8112.00
2023-01-09T11:39:32.528Z,8596.00
2023-01-09T11:40:32.215Z,8600.00
2023-01-09T11:41:32.300Z,10872.00
2023-01-09T11:42:32.106Z,12792.00
2023-01-09T11:43:32.309Z,11492.00
2023-01-09T11:44:32.009Z,9524.00
2023-01-09T11:45:31.966Z,8404.00
2023-01-09T11:46:32.377Z,5944.00
2023-01-09T11:47:31.864Z,5916.00
2023-01-09T11:48:31.942Z,4888.00
2023-01-09T11:49:31.778Z,4484.00
2023-01-09T11:50:31.958Z,4036.00
2023-01-09T11:51:31.708Z,4496.00
2023-01-09T11:52:31.767Z,4848.00
2023-01-09T11:53:31.577Z,5332.00
2023-01-09T11:54:31.865Z,5140.00
2023-01-09T11:55:41.774Z,6476.00
2023-01-09T11:56:31.434Z,6468.00
2023-01-09T11:57:31.651Z,5928.00
2023-01-09T11:58:31.599Z,7380.00
2023-01-09T11:59:31.287Z,11312.00
2023-01-09T12:00:31.414Z,10432.00
2023-01-09T12:01:31.199Z,12648.00
2023-01-09T12:02:31.430Z,12016.00
2023-01-09T12:03:31.135Z,15148.00
2023-01-09T12:04:31.240Z,17600.00
2023-01-09T12:05:31.011Z,18720.00
2023-01-09T12:06:31.246Z,25824.00
2023-01-09T12:07:30.906Z,22336.00
2023-01-09T12:08:31.058Z,18848.00
2023-01-09T12:09:31.117Z,19328.00
2023-01-09T12:10:30.868Z,24448.00
2023-01-09T12:11:30.732Z,25664.00
2023-01-09T12:12:30.888Z,25152.00
2023-01-09T12:13:30.641Z,15984.00
2023-01-09T12:14:30.713Z,18656.00
2023-01-09T12:15:30.541Z,19520.00
2023-01-09T12:16:30.744Z,15700.00
2023-01-09T12:17:30.437Z,14192.00
2023-01-09T12:18:30.526Z,13112.00
2023-01-09T12:19:30.574Z,11560.00
2023-01-09T12:20:30.541Z,9492.00
2023-01-09T12:21:30.244Z,8304.00
2023-01-09T12:22:30.345Z,10280.00
2023-01-09T12:23:30.176Z,9756.00
2023-01-09T12:24:30.365Z,5852.00
2023-01-09T12:25:30.089Z,4864.00
2023-01-09T12:26:30.181Z,5200.00
2023-01-09T12:27:29.964Z,4248.00
2023-01-09T12:28:30.188Z,4000.00
2023-01-09T12:29:29.874Z,2948.00
2023-01-09T12:30:29.993Z,2344.00
2023-01-09T12:31:30.084Z,2076.00
2023-01-09T12:32:30.015Z,2436.00
2023-01-09T12:33:29.684Z,2152.00
2023-01-09T12:34:29.815Z,1736.00
2023-01-09T12:35:29.868Z,1884.00
2023-01-09T12:36:29.831Z,2324.00
2023-01-09T12:37:29.536Z,4316.00
2023-01-09T12:38:29.657Z,6624.00
2023-01-09T12:39:29.407Z,7444.00
2023-01-09T12:40:29.663Z,8108.00
2023-01-09T12:41:29.303Z,13196.00
2023-01-09T12:42:29.477Z,13620.00
2023-01-09T12:43:29.543Z,8896.00
2023-01-09T12:44:35.632Z,5980.00